Time;durP1;ratioP1;P1;durP2;ratioP2;P2;SDS_P1;SDS_P2;PMS_P1;PMS_P2;Temp;Humidity;BMP_temperature;BMP_pressure;BME280_temperature;BME280_humidity;BME280_pressure;Samples;Min_cycle;Max_cycle;Signal;HPM_P1;HPM_P2
2023/10/19 08:57:50;;;;;;;7.50;6.00;;;;;;;;;;5848599;23;20253;-76
2023/10/19 09:00:19;;;;;;;7.20;5.95;;;;;;;;;;4919106;29;20531;-77
2023/10/19 09:02:45;;;;;;;6.70;5.90;;;;;;;;;;4914657;29;20397;-72
2023/10/19 09:05:19;;;;;;;6.10;5.50;;;;;;;;;;4902293;29;20048;-66
2023/10/19 09:07:47;;;;;;;7.80;6.40;;;;;;;;;;4900998;29;20104;-66
2023/10/19 09:10:16;;;;;;;6.47;5.70;;;;;;;;;;4903458;29;20048;-66
2023/10/19 09:12:42;;;;;;;7.32;6.00;;;;;;;;;;4904778;29;20029;-66
2023/10/19 09:15:32;;;;;;;6.72;5.93;;;;;;;;;;4905439;29;20035;-70
2023/10/19 09:17:59;;;;;;;6.65;5.93;;;;;;;;;;4905211;29;20103;-67
2023/10/19 09:20:27;;;;;;;6.50;5.80;;;;;;;;;;4905213;29;20044;-67
2023/10/19 09:23:01;;;;;;;7.97;5.80;;;;;;;;;;4905566;29;20028;-70
2023/10/19 09:25:27;;;;;;;7.10;5.75;;;;;;;;;;4904949;29;20063;-68
2023/10/19 09:27:53;;;;;;;8.02;5.75;;;;;;;;;;4905470;29;20441;-66
2023/10/19 09:30:20;;;;;;;6.57;5.40;;;;;;;;;;4905776;29;20509;-66
2023/10/19 09:32:49;;;;;;;5.78;5.20;;;;;;;;;;4905935;29;20107;-66
2023/10/19 09:35:17;;;;;;;8.90;6.20;;;;;;;;;;4908750;29;20052;-69
2023/10/19 09:37:45;;;;;;;6.57;5.45;;;;;;;;;;4892081;29;20024;-68
2023/10/19 09:40:13;;;;;;;6.65;5.47;;;;;;;;;;4908717;29;20043;-66
2023/10/19 09:42:48;;;;;;;8.18;6.35;;;;;;;;;;4908350;29;20389;-64
2023/10/19 09:45:18;;;;;;;6.45;5.78;;;;;;;;;;4908276;29;20481;-66
2023/10/19 09:47:50;;;;;;;7.38;5.80;;;;;;;;;;4908772;29;20381;-64
2023/10/19 09:50:15;;;;;;;7.28;5.55;;;;;;;;;;4908940;29;20079;-68
2023/10/19 09:52:41;;;;;;;6.93;5.88;;;;;;;;;;4891149;29;20024;-64
2023/10/19 09:55:23;;;;;;;6.07;5.47;;;;;;;;;;4908321;29;20370;-65
2023/10/19 09:58:14;;;;;;;6.85;5.80;;;;;;;;;;4908133;29;20495;-62
2023/10/19 10:00:44;;;;;;;5.90;5.30;;;;;;;;;;4909887;29;20544;-72
2023/10/19 10:03:43;;;;;;;5.72;5.22;;;;;;;;;;4919002;29;20099;-62
2023/10/19 10:06:12;;;;;;;5.85;5.25;;;;;;;;;;4923813;29;20031;-73
2023/10/19 10:08:39;;;;;;;7.20;5.53;;;;;;;;;;4922443;29;20034;-74
2023/10/19 10:11:17;;;;;;;6.43;5.70;;;;;;;;;;4925405;29;20032;-74
2023/10/19 10:13:50;;;;;;;6.28;5.30;;;;;;;;;;4930196;29;20059;-73
2023/10/19 10:16:21;;;;;;;7.38;5.65;;;;;;;;;;4921537;29;20626;-72
2023/10/19 10:18:50;;;;;;;6.20;5.60;;;;;;;;;;4919403;29;20024;-73
2023/10/19 10:21:24;;;;;;;6.88;5.70;;;;;;;;;;4903645;29;20032;-72
2023/10/19 10:24:00;;;;;;;8.90;5.70;;;;;;;;;;4920864;29;20024;-72
2023/10/19 10:26:30;;;;;;;6.30;5.35;;;;;;;;;;4919347;29;20032;-73
2023/10/19 10:29:14;;;;;;;7.63;6.30;;;;;;;;;;4910003;29;20025;-74
2023/10/19 10:31:44;;;;;;;6.50;5.80;;;;;;;;;;4900830;29;20032;-73
2023/10/19 10:34:11;;;;;;;7.35;5.72;;;;;;;;;;4900294;29;20028;-74
2023/10/19 10:37:02;;;;;;;7.22;5.80;;;;;;;;;;4900965;29;20473;-74
2023/10/19 10:39:30;;;;;;;7.75;5.53;;;;;;;;;;4900154;29;20025;-74
2023/10/19 10:42:00;;;;;;;7.97;5.85;;;;;;;;;;4900761;29;20021;-72
2023/10/19 10:44:41;;;;;;;;;;;;;;;;;;4901082;29;20020;-74
2023/10/19 10:47:12;;;;;;;6.85;6.13;;;;;;;;;;4901346;29;20043;-72
2023/10/19 10:49:55;;;;;;;6.95;6.07;;;;;;;;;;4900986;29;20035;-74
2023/10/19 10:52:34;;;;;;;6.60;5.40;;;;;;;;;;4900124;29;20155;-74
2023/10/19 10:55:14;;;;;;;8.85;6.07;;;;;;;;;;4900836;29;20029;-72
2023/10/19 10:57:41;;;;;;;6.50;5.50;;;;;;;;;;4902630;29;20024;-74
2023/10/19 11:00:22;;;;;;;6.38;5.57;;;;;;;;;;4901090;29;20032;-74
2023/10/19 11:03:09;;;;;;;7.13;6.00;;;;;;;;;;4900580;29;20025;-73
2023/10/19 11:05:35;;;;;;;6.68;5.97;;;;;;;;;;4901313;29;20036;-73
2023/10/19 11:08:20;;;;;;;8.10;5.70;;;;;;;;;;4902604;29;20052;-73
2023/10/19 11:10:46;;;;;;;7.43;5.65;;;;;;;;;;4903303;29;20032;-74
2023/10/19 11:13:14;;;;;;;6.10;5.50;;;;;;;;;;4902820;29;20025;-74
2023/10/19 11:15:48;;;;;;;6.80;6.10;;;;;;;;;;4884642;29;20088;-73
2023/10/19 11:18:32;;;;;;;7.60;6.38;;;;;;;;;;4901974;29;20017;-74
2023/10/19 11:21:04;;;;;;;6.97;5.75;;;;;;;;;;4886673;29;20020;-74
2023/10/19 11:23:43;;;;;;;7.85;5.72;;;;;;;;;;4903452;29;20029;-74
2023/10/19 11:26:13;;;;;;;7.03;5.82;;;;;;;;;;4904530;29;20452;-74
2023/10/19 11:28:43;;;;;;;6.32;5.63;;;;;;;;;;4903810;29;20055;-75
2023/10/19 11:31:24;;;;;;;6.18;5.50;;;;;;;;;;4902103;29;20084;-75
2023/10/19 11:33:58;;;;;;;6.85;5.55;;;;;;;;;;4902412;29;20100;-74
2023/10/19 11:36:24;;;;;;;7.60;5.60;;;;;;;;;;4898813;29;20040;-68
2023/10/19 11:38:52;;;;;;;10.43;5.45;;;;;;;;;;4893799;29;20025;-67
2023/10/19 11:41:17;;;;;;;6.80;4.93;;;;;;;;;;4900618;29;20024;-68
2023/10/19 11:43:45;;;;;;;7.95;5.38;;;;;;;;;;4903043;29;20100;-69
2023/10/19 11:46:18;;;;;;;6.85;5.20;;;;;;;;;;4898154;29;20032;-70
2023/10/19 11:48:44;;;;;;;7.85;4.88;;;;;;;;;;4898131;29;20043;-68
2023/10/19 11:51:13;;;;;;;8.48;5.30;;;;;;;;;;4898102;29;20108;-69
2023/10/19 11:53:39;;;;;;;10.27;5.10;;;;;;;;;;4880837;29;20064;-71
2023/10/19 11:56:11;;;;;;;7.88;4.63;;;;;;;;;;4897889;29;20395;-69
2023/10/19 11:58:39;;;;;;;10.23;5.05;;;;;;;;;;4897805;29;20051;-70
2023/10/19 12:01:08;;;;;;;10.30;4.88;;;;;;;;;;4897943;29;20020;-70
2023/10/19 12:03:36;;;;;;;9.20;4.40;;;;;;;;;;4897781;29;20043;-68
2023/10/19 12:06:08;;;;;;;10.15;5.20;;;;;;;;;;4897703;29;20032;-69
2023/10/19 12:08:35;;;;;;;6.75;4.60;;;;;;;;;;4897953;29;20096;-71
2023/10/19 12:11:03;;;;;;;6.85;4.32;;;;;;;;;;4897889;29;20040;-70
2023/10/19 12:13:29;;;;;;;7.90;4.35;;;;;;;;;;4897322;29;20036;-70
2023/10/19 12:15:57;;;;;;;9.25;4.10;;;;;;;;;;4897897;29;20032;-73
2023/10/19 12:18:26;;;;;;;7.78;3.88;;;;;;;;;;4897997;29;20516;-72
2023/10/19 12:20:56;;;;;;;5.85;4.43;;;;;;;;;;4898160;29;20040;-72
2023/10/19 12:23:23;;;;;;;6.88;4.22;;;;;;;;;;4897741;29;20036;-71
2023/10/19 12:25:49;;;;;;;7.55;4.15;;;;;;;;;;4897761;29;20031;-72
2023/10/19 12:28:14;;;;;;;7.85;4.78;;;;;;;;;;4897918;29;20099;-73
2023/10/19 12:30:41;;;;;;;10.00;4.88;;;;;;;;;;4897665;29;20028;-74
2023/10/19 12:33:11;;;;;;;7.20;4.40;;;;;;;;;;4900459;29;20381;-75
2023/10/19 12:35:53;;;;;;;7.17;5.20;;;;;;;;;;4899316;29;20123;-74
2023/10/19 12:38:19;;;;;;;7.03;4.65;;;;;;;;;;4901240;29;20031;-75
2023/10/19 12:40:47;;;;;;;6.43;4.60;;;;;;;;;;4927005;29;20123;-75
2023/10/19 12:43:18;;;;;;;7.15;4.38;;;;;;;;;;4921682;29;20036;-75
2023/10/19 12:45:50;;;;;;;10.55;4.75;;;;;;;;;;4916551;29;20032;-74
2023/10/19 12:48:17;;;;;;;6.70;4.88;;;;;;;;;;4917883;29;20027;-74
2023/10/19 12:50:42;;;;;;;9.43;4.82;;;;;;;;;;4922697;29;20042;-76
2023/10/19 12:53:09;;;;;;;10.18;4.57;;;;;;;;;;4920477;29;20035;-76
2023/10/19 12:55:37;;;;;;;7.70;4.50;;;;;;;;;;4922554;29;20477;-75
2023/10/19 12:58:07;;;;;;;8.75;4.72;;;;;;;;;;4925657;29;20056;-75
2023/10/19 13:00:40;;;;;;;11.52;4.70;;;;;;;;;;4924851;29;20041;-76
2023/10/19 13:03:07;;;;;;;9.38;4.68;;;;;;;;;;4914943;29;20032;-76
2023/10/19 13:05:40;;;;;;;11.80;4.70;;;;;;;;;;4915546;29;20033;-77
2023/10/19 13:08:06;;;;;;;8.60;4.70;;;;;;;;;;4916946;29;20031;-75
2023/10/19 13:10:34;;;;;;;11.82;5.05;;;;;;;;;;4916164;29;20024;-74
2023/10/19 13:13:12;;;;;;;14.38;5.05;;;;;;;;;;4918689;29;20028;-74
2023/10/19 13:15:40;;;;;;;8.38;4.65;;;;;;;;;;4918924;29;20050;-75
2023/10/19 13:18:09;;;;;;;8.52;4.63;;;;;;;;;;4916595;29;20111;-76
2023/10/19 13:20:36;;;;;;;9.77;4.57;;;;;;;;;;4912201;29;20028;-75
2023/10/19 13:23:06;;;;;;;11.40;5.30;;;;;;;;;;4922195;29;20095;-74
2023/10/19 13:25:41;;;;;;;8.73;4.80;;;;;;;;;;4920832;29;20778;-72
2023/10/19 13:28:11;;;;;;;9.70;4.50;;;;;;;;;;4920503;29;20064;-73
2023/10/19 13:30:47;;;;;;;7.57;4.07;;;;;;;;;;4919082;29;20116;-73
2023/10/19 13:33:13;;;;;;;6.28;4.15;;;;;;;;;;4918123;29;20040;-74
2023/10/19 13:35:40;;;;;;;11.55;4.22;;;;;;;;;;4919597;29;20373;-74
2023/10/19 13:38:07;;;;;;;7.95;4.40;;;;;;;;;;4909759;29;20114;-76
2023/10/19 13:40:40;;;;;;;7.75;4.78;;;;;;;;;;4911639;29;20028;-76
2023/10/19 13:43:07;;;;;;;6.82;4.53;;;;;;;;;;4919321;29;20473;-73
2023/10/19 13:45:37;;;;;;;7.20;4.68;;;;;;;;;;4908351;29;20555;-73
2023/10/19 13:48:04;;;;;;;15.20;4.82;;;;;;;;;;4900233;29;20553;-73
2023/10/19 13:50:30;;;;;;;12.60;5.25;;;;;;;;;;4900215;29;20040;-73
2023/10/19 13:52:56;;;;;;;9.73;4.97;;;;;;;;;;4900043;29;20021;-74
2023/10/19 13:55:23;;;;;;;8.63;4.55;;;;;;;;;;4914201;29;20037;-74
2023/10/19 13:57:49;;;;;;;9.52;4.30;;;;;;;;;;4901520;29;20029;-73
2023/10/19 14:00:23;;;;;;;13.00;4.85;;;;;;;;;;4900527;29;20115;-74
2023/10/19 14:02:50;;;;;;;8.75;4.57;;;;;;;;;;4900731;29;20497;-73
2023/10/19 14:05:16;;;;;;;9.10;4.45;;;;;;;;;;4900438;29;20037;-72
2023/10/19 14:07:43;;;;;;;7.20;4.60;;;;;;;;;;4910515;29;20036;-65
2023/10/19 14:10:12;;;;;;;10.90;4.55;;;;;;;;;;4919099;29;20024;-69
2023/10/19 14:12:41;;;;;;;7.65;4.78;;;;;;;;;;4918918;29;20039;-68
2023/10/19 14:15:12;;;;;;;9.45;3.72;;;;;;;;;;4918629;29;20032;-64
2023/10/19 14:17:38;;;;;;;8.82;4.78;;;;;;;;;;4917288;29;20024;-63
2023/10/19 14:20:05;;;;;;;12.15;4.97;;;;;;;;;;4900120;29;20508;-64
2023/10/19 14:22:34;;;;;;;10.00;4.43;;;;;;;;;;4899613;29;20039;-64
2023/10/19 14:25:00;;;;;;;11.30;5.07;;;;;;;;;;4899971;29;20043;-64
2023/10/19 14:27:26;;;;;;;5.22;3.80;;;;;;;;;;4899646;29;20029;-65
2023/10/19 14:29:52;;;;;;;9.63;4.40;;;;;;;;;;4899553;29;20143;-64
2023/10/19 14:32:17;;;;;;;7.40;4.53;;;;;;;;;;4899561;29;20025;-64
2023/10/19 14:34:43;;;;;;;13.43;5.20;;;;;;;;;;4899324;29;20036;-64
2023/10/19 14:37:08;;;;;;;12.38;5.53;;;;;;;;;;4899678;29;20438;-63
2023/10/19 14:39:34;;;;;;;12.57;6.30;;;;;;;;;;4899421;29;20024;-66
2023/10/19 14:42:00;;;;;;;11.85;4.30;;;;;;;;;;4899194;29;20025;-64
2023/10/19 14:44:27;;;;;;;21.85;4.75;;;;;;;;;;4899028;29;20145;-65
2023/10/19 14:46:53;;;;;;;9.27;4.68;;;;;;;;;;4899102;29;20121;-64
2023/10/19 14:49:18;;;;;;;12.63;5.00;;;;;;;;;;4899148;29;20108;-64
2023/10/19 14:51:44;;;;;;;14.13;4.88;;;;;;;;;;4882102;29;20032;-64
2023/10/19 14:54:11;;;;;;;15.65;5.57;;;;;;;;;;4898873;29;20032;-66
2023/10/19 14:56:36;;;;;;;14.93;5.35;;;;;;;;;;4898545;29;20044;-64
2023/10/19 14:59:04;;;;;;;10.77;4.60;;;;;;;;;;4899016;29;20055;-64
2023/10/19 15:01:30;;;;;;;8.55;4.80;;;;;;;;;;4899069;29;20386;-65
2023/10/19 15:03:56;;;;;;;13.80;5.63;;;;;;;;;;4899031;29;20021;-66
2023/10/19 15:06:22;;;;;;;10.73;5.07;;;;;;;;;;4898932;29;20029;-64
2023/10/19 15:08:47;;;;;;;13.82;5.40;;;;;;;;;;4898997;29;20028;-64
2023/10/19 15:11:17;;;;;;;11.35;4.90;;;;;;;;;;4898839;29;20021;-64
2023/10/19 15:13:43;;;;;;;;;;;;;;;;;;4904162;29;20056;-63
2023/10/19 15:16:09;;;;;;;11.40;5.00;;;;;;;;;;4908497;29;19958;-64
2023/10/19 15:18:36;;;;;;;9.43;4.80;;;;;;;;;;4906653;29;20033;-64
2023/10/19 15:21:08;;;;;;;13.43;5.22;;;;;;;;;;4915068;29;20032;-64
2023/10/19 15:23:34;;;;;;;16.10;5.40;;;;;;;;;;4917612;29;20110;-63
2023/10/19 15:26:01;;;;;;;9.23;5.00;;;;;;;;;;4908206;29;20124;-64
2023/10/19 15:28:32;;;;;;;9.57;4.78;;;;;;;;;;4905901;29;20028;-63
2023/10/19 15:30:59;;;;;;;17.85;5.38;;;;;;;;;;4915365;29;20031;-67
2023/10/19 15:33:24;;;;;;;11.50;4.50;;;;;;;;;;4916015;29;20036;-63
2023/10/19 15:35:51;;;;;;;21.63;6.57;;;;;;;;;;4903345;29;20032;-65
2023/10/19 15:38:16;;;;;;;12.57;5.05;;;;;;;;;;4898392;29;20051;-64
2023/10/19 15:40:42;;;;;;;17.48;4.85;;;;;;;;;;4898251;29;20048;-64
2023/10/19 15:43:08;;;;;;;16.48;5.88;;;;;;;;;;4898539;29;20402;-64
2023/10/19 15:45:37;;;;;;;13.50;5.15;;;;;;;;;;4898286;29;20397;-64
2023/10/19 15:48:03;;;;;;;17.48;6.13;;;;;;;;;;4898107;29;20164;-63
2023/10/19 15:50:29;;;;;;;14.27;6.63;;;;;;;;;;4898274;29;20036;-63
2023/10/19 15:52:55;;;;;;;18.83;7.38;;;;;;;;;;4898009;29;20120;-67
2023/10/19 15:55:24;;;;;;;16.55;6.47;;;;;;;;;;4911763;29;20035;-62
2023/10/19 15:57:50;;;;;;;15.50;5.28;;;;;;;;;;4916781;29;20561;-67
2023/10/19 16:00:16;;;;;;;11.80;5.97;;;;;;;;;;4916882;29;20036;-68
2023/10/19 16:02:43;;;;;;;20.00;6.60;;;;;;;;;;4916617;29;20040;-68
2023/10/19 16:05:09;;;;;;;24.50;8.52;;;;;;;;;;4916787;29;20039;-69
2023/10/19 16:07:35;;;;;;;21.13;7.03;;;;;;;;;;4916652;29;20032;-68
2023/10/19 16:10:03;;;;;;;20.92;6.45;;;;;;;;;;4916670;29;20020;-67
2023/10/19 16:12:30;;;;;;;15.05;5.68;;;;;;;;;;4916918;29;20422;-68
2023/10/19 16:14:55;;;;;;;12.88;6.05;;;;;;;;;;4916733;29;20500;-67
2023/10/19 16:17:21;;;;;;;16.42;5.90;;;;;;;;;;4916618;29;20036;-69
2023/10/19 16:19:47;;;;;;;12.82;6.10;;;;;;;;;;4916606;29;20480;-67
2023/10/19 16:22:13;;;;;;;16.48;5.78;;;;;;;;;;4916407;29;20034;-67
2023/10/19 16:24:39;;;;;;;13.63;6.18;;;;;;;;;;4902122;29;20033;-67
2023/10/19 16:27:07;;;;;;;15.00;5.50;;;;;;;;;;4897370;29;20116;-67
2023/10/19 16:29:33;;;;;;;14.77;5.88;;;;;;;;;;4899840;29;20481;-67
2023/10/19 16:31:59;;;;;;;12.93;5.40;;;;;;;;;;4897402;29;20033;-67
2023/10/19 16:34:25;;;;;;;18.00;6.00;;;;;;;;;;4897368;29;20088;-67
2023/10/19 16:36:51;;;;;;;9.43;5.45;;;;;;;;;;4897245;29;20036;-68
2023/10/19 16:39:17;;;;;;;12.52;5.95;;;;;;;;;;4897370;29;20534;-67
2023/10/19 16:41:52;;;;;;;15.70;5.55;;;;;;;;;;4897199;29;20572;-68
2023/10/19 16:44:19;;;;;;;13.50;5.70;;;;;;;;;;4897249;29;20107;-68
2023/10/19 16:46:45;;;;;;;13.43;5.93;;;;;;;;;;4897251;29;20152;-68
2023/10/19 16:49:11;;;;;;;11.77;5.75;;;;;;;;;;4897189;29;20464;-68
2023/10/19 16:51:46;;;;;;;9.80;5.15;;;;;;;;;;4897218;29;20056;-71
2023/10/19 16:54:11;;;;;;;15.73;6.13;;;;;;;;;;4888966;29;20063;-68
2023/10/19 16:56:39;;;;;;;9.10;5.10;;;;;;;;;;4906813;29;20056;-67
2023/10/19 16:59:07;;;;;;;8.40;5.57;;;;;;;;;;4899323;29;20412;-69
2023/10/19 17:01:33;;;;;;;9.10;5.40;;;;;;;;;;4905098;29;20569;-68
2023/10/19 17:03:59;;;;;;;9.57;5.25;;;;;;;;;;4916280;29;20063;-67
2023/10/19 17:06:25;;;;;;;9.82;4.97;;;;;;;;;;4915878;29;20031;-72
2023/10/19 17:08:50;;;;;;;7.65;5.25;;;;;;;;;;4916119;29;20020;-68
2023/10/19 17:11:17;;;;;;;7.00;5.32;;;;;;;;;;4915977;29;20024;-68
2023/10/19 17:13:42;;;;;;;10.90;5.45;;;;;;;;;;4915786;29;20035;-68
2023/10/19 17:16:08;;;;;;;13.25;5.78;;;;;;;;;;4915254;29;20028;-67
2023/10/19 17:18:34;;;;;;;13.75;4.93;;;;;;;;;;4904361;29;20040;-67
2023/10/19 17:21:02;;;;;;;11.75;5.43;;;;;;;;;;4896797;29;20494;-67
2023/10/19 17:23:28;;;;;;;13.75;5.57;;;;;;;;;;4897049;29;20084;-67
2023/10/19 17:25:54;;;;;;;11.32;5.20;;;;;;;;;;4896879;29;20029;-67
2023/10/19 17:28:20;;;;;;;12.60;5.20;;;;;;;;;;4896850;29;20367;-68
2023/10/19 17:30:47;;;;;;;12.35;5.40;;;;;;;;;;4896967;29;20052;-69
2023/10/19 17:33:13;;;;;;;9.88;5.65;;;;;;;;;;4896687;29;20623;-67
2023/10/19 17:35:39;;;;;;;10.13;5.53;;;;;;;;;;4911457;29;20042;-67
2023/10/19 17:38:05;;;;;;;10.35;5.10;;;;;;;;;;4915597;29;20473;-67
2023/10/19 17:40:31;;;;;;;6.93;4.80;;;;;;;;;;4915595;29;20032;-67
2023/10/19 17:42:56;;;;;;;13.13;5.50;;;;;;;;;;4915611;29;20030;-66
2023/10/19 17:45:22;;;;;;;16.10;5.70;;;;;;;;;;4915652;29;20024;-68
2023/10/19 17:47:48;;;;;;;10.75;5.13;;;;;;;;;;4915607;29;20430;-67
2023/10/19 17:50:14;;;;;;;8.55;5.18;;;;;;;;;;4915734;29;20134;-66
2023/10/19 17:52:39;;;;;;;10.60;5.88;;;;;;;;;;4908048;29;20059;-67
2023/10/19 17:55:06;;;;;;;14.48;5.60;;;;;;;;;;4907771;29;20040;-67
2023/10/19 17:57:35;;;;;;;20.92;7.45;;;;;;;;;;4909890;29;20032;-66
2023/10/19 18:00:01;;;;;;;18.23;6.40;;;;;;;;;;4909454;29;20502;-67
2023/10/19 18:02:27;;;;;;;11.82;5.78;;;;;;;;;;4907922;29;20039;-67
2023/10/19 18:04:53;;;;;;;14.77;5.53;;;;;;;;;;4915915;29;20039;-67
2023/10/19 18:07:21;;;;;;;18.88;6.18;;;;;;;;;;4918846;29;20030;-68
2023/10/19 18:09:49;;;;;;;13.27;5.20;;;;;;;;;;4915272;29;20111;-68
2023/10/19 18:12:16;;;;;;;12.57;6.07;;;;;;;;;;4909004;29;20048;-68
2023/10/19 18:14:42;;;;;;;11.80;5.85;;;;;;;;;;4907877;29;20036;-71
2023/10/19 18:17:11;;;;;;;10.48;5.38;;;;;;;;;;4909521;29;20072;-68
2023/10/19 18:19:37;;;;;;;8.73;5.20;;;;;;;;;;4908981;29;20031;-68
2023/10/19 18:22:04;;;;;;;12.90;5.57;;;;;;;;;;4905482;29;20636;-69
2023/10/19 18:24:32;;;;;;;9.02;5.82;;;;;;;;;;4899598;29;20075;-67
2023/10/19 18:26:59;;;;;;;9.00;5.32;;;;;;;;;;4899565;29;20485;-68
2023/10/19 18:29:25;;;;;;;16.40;5.70;;;;;;;;;;4899871;29;20035;-68
2023/10/19 18:31:50;;;;;;;8.95;5.35;;;;;;;;;;4900670;29;20047;-70
2023/10/19 18:34:19;;;;;;;16.15;5.80;;;;;;;;;;4918375;29;20466;-68
2023/10/19 18:36:45;;;;;;;7.32;5.22;;;;;;;;;;4918200;29;20052;-67
2023/10/19 18:39:15;;;;;;;12.77;5.07;;;;;;;;;;4918217;29;20055;-66
2023/10/19 18:41:42;;;;;;;11.23;5.72;;;;;;;;;;4918247;29;20025;-70
2023/10/19 18:44:09;;;;;;;8.13;5.10;;;;;;;;;;4918132;29;20032;-69
2023/10/19 18:46:35;;;;;;;9.32;5.43;;;;;;;;;;4918445;29;20350;-66
2023/10/19 18:49:01;;;;;;;8.95;5.20;;;;;;;;;;4918044;29;20028;-67
2023/10/19 18:51:26;;;;;;;11.63;4.90;;;;;;;;;;4918235;29;20075;-67
2023/10/19 18:53:55;;;;;;;9.73;5.00;;;;;;;;;;4918004;29;20485;-68
2023/10/19 18:56:20;;;;;;;13.13;4.95;;;;;;;;;;4911193;29;20469;-69
2023/10/19 18:58:46;;;;;;;13.38;5.30;;;;;;;;;;4917679;29;20051;-69
2023/10/19 19:01:11;;;;;;;10.80;5.07;;;;;;;;;;4918205;29;20031;-66
2023/10/19 19:03:37;;;;;;;17.88;4.90;;;;;;;;;;4917704;29;20079;-66
2023/10/19 19:06:04;;;;;;;8.68;4.88;;;;;;;;;;4917724;29;20107;-69
2023/10/19 19:08:33;;;;;;;11.60;4.93;;;;;;;;;;4912746;29;20115;-69
2023/10/19 19:10:59;;;;;;;13.70;5.50;;;;;;;;;;4905308;29;20111;-65
2023/10/19 19:13:25;;;;;;;10.55;4.70;;;;;;;;;;4917585;29;20032;-67
2023/10/19 19:15:58;;;;;;;13.73;5.47;;;;;;;;;;4917536;29;20025;-69
2023/10/19 19:18:25;;;;;;;8.88;4.40;;;;;;;;;;4907286;29;20039;-69
2023/10/19 19:20:54;;;;;;;13.20;5.15;;;;;;;;;;4881755;29;20067;-66
2023/10/19 19:23:20;;;;;;;7.43;4.35;;;;;;;;;;4898715;29;20036;-68
2023/10/19 19:25:46;;;;;;;8.75;4.25;;;;;;;;;;4898602;29;20024;-66
2023/10/19 19:28:11;;;;;;;9.30;4.38;;;;;;;;;;4898545;29;20032;-66
2023/10/19 19:30:38;;;;;;;11.38;4.50;;;;;;;;;;4898497;29;20028;-66
2023/10/19 19:33:05;;;;;;;7.65;4.43;;;;;;;;;;4902697;29;20060;-68
2023/10/19 19:35:31;;;;;;;9.35;4.45;;;;;;;;;;4901238;29;20255;-67
2023/10/19 19:37:57;;;;;;;11.25;4.57;;;;;;;;;;4881490;29;20383;-67
2023/10/19 19:40:24;;;;;;;10.88;4.28;;;;;;;;;;4899873;29;20021;-68
2023/10/19 19:42:51;;;;;;;10.00;4.15;;;;;;;;;;4906870;29;20024;-68
2023/10/19 19:45:17;;;;;;;7.32;3.58;;;;;;;;;;4916402;29;20032;-68
2023/10/19 19:47:44;;;;;;;10.50;4.25;;;;;;;;;;4916972;29;20031;-68
2023/10/19 19:50:10;;;;;;;10.73;4.35;;;;;;;;;;4916965;29;20032;-68
2023/10/19 19:52:41;;;;;;;11.60;4.30;;;;;;;;;;4899368;29;20028;-68
2023/10/19 19:55:12;;;;;;;10.00;3.97;;;;;;;;;;4897870;29;20024;-68
2023/10/19 19:57:37;;;;;;;12.02;4.10;;;;;;;;;;4904564;29;20024;-68
2023/10/19 20:00:13;;;;;;;9.05;4.20;;;;;;;;;;4897851;29;20112;-69
2023/10/19 20:02:40;;;;;;;11.75;4.35;;;;;;;;;;4898136;29;20033;-68
2023/10/19 20:05:08;;;;;;;7.85;3.67;;;;;;;;;;4901147;29;20021;-67
2023/10/19 20:07:38;;;;;;;8.80;4.10;;;;;;;;;;4889381;29;20024;-68
2023/10/19 20:10:05;;;;;;;21.63;4.40;;;;;;;;;;4905548;29;20028;-68
2023/10/19 20:12:31;;;;;;;46.28;10.75;;;;;;;;;;4908440;29;20032;-68
2023/10/19 20:14:57;;;;;;;43.10;12.60;;;;;;;;;;4905040;29;20363;-68
2023/10/19 20:17:22;;;;;;;17.48;4.57;;;;;;;;;;4897517;29;20452;-67
2023/10/19 20:19:48;;;;;;;11.60;4.80;;;;;;;;;;4897730;29;20020;-68
2023/10/19 20:22:13;;;;;;;19.27;5.20;;;;;;;;;;4897704;29;20037;-68
2023/10/19 20:24:39;;;;;;;14.80;5.22;;;;;;;;;;4897522;29;20028;-68
2023/10/19 20:27:04;;;;;;;21.45;5.20;;;;;;;;;;4897551;29;20111;-68
2023/10/19 20:29:30;;;;;;;19.10;4.80;;;;;;;;;;4897526;29;20028;-68
2023/10/19 20:31:55;;;;;;;14.00;5.15;;;;;;;;;;4897298;29;20040;-68
2023/10/19 20:34:21;;;;;;;15.38;4.95;;;;;;;;;;4897422;29;20420;-68
2023/10/19 20:36:49;;;;;;;95.93;19.50;;;;;;;;;;4905675;29;20065;-68
2023/10/19 20:39:14;;;;;;;71.05;14.52;;;;;;;;;;4903206;29;20029;-69
2023/10/19 20:41:42;;;;;;;22.75;5.53;;;;;;;;;;4905484;29;20510;-67
2023/10/19 20:44:09;;;;;;;23.67;6.05;;;;;;;;;;4908312;29;20028;-67
2023/10/19 20:46:35;;;;;;;30.33;7.65;;;;;;;;;;4916442;29;20033;-69
2023/10/19 20:49:01;;;;;;;18.30;5.97;;;;;;;;;;4916123;29;20484;-67
2023/10/19 20:51:27;;;;;;;46.83;11.13;;;;;;;;;;4907175;29;20104;-67
2023/10/19 20:53:52;;;;;;;29.08;7.57;;;;;;;;;;4897131;29;20045;-67
2023/10/19 20:56:18;;;;;;;21.48;5.78;;;;;;;;;;4897348;29;20025;-67
2023/10/19 20:58:44;;;;;;;28.45;6.25;;;;;;;;;;4896766;29;20052;-67
2023/10/19 21:01:09;;;;;;;17.83;5.20;;;;;;;;;;4897118;29;20041;-69
2023/10/19 21:03:37;;;;;;;14.55;5.35;;;;;;;;;;4897172;29;20033;-66
2023/10/19 21:06:16;;;;;;;24.13;5.28;;;;;;;;;;4897272;29;20363;-67
2023/10/19 21:08:42;;;;;;;23.25;4.57;;;;;;;;;;4897158;29;20021;-68
2023/10/19 21:11:16;;;;;;;21.52;5.45;;;;;;;;;;4897266;29;20108;-66
2023/10/19 21:13:42;;;;;;;15.32;4.47;;;;;;;;;;4897321;29;20028;-68
2023/10/19 21:16:10;;;;;;;9.57;3.90;;;;;;;;;;4897094;29;20534;-67
2023/10/19 21:18:37;;;;;;;14.60;4.05;;;;;;;;;;4897088;29;20028;-68
2023/10/19 21:21:04;;;;;;;21.88;4.53;;;;;;;;;;4896987;29;20108;-67
2023/10/19 21:23:30;;;;;;;10.27;3.85;;;;;;;;;;4897062;29;20037;-69
2023/10/19 21:25:57;;;;;;;21.52;5.22;;;;;;;;;;4897036;29;20496;-67
2023/10/19 21:28:23;;;;;;;12.02;4.20;;;;;;;;;;4883736;29;20031;-67
2023/10/19 21:30:49;;;;;;;13.32;3.92;;;;;;;;;;4900700;29;20024;-67
2023/10/19 21:33:15;;;;;;;11.73;3.95;;;;;;;;;;4900525;29;20036;-68
2023/10/19 21:35:40;;;;;;;14.88;4.53;;;;;;;;;;4900829;29;20028;-66
2023/10/19 21:38:06;;;;;;;13.18;3.53;;;;;;;;;;4900518;29;20533;-65
2023/10/19 21:40:32;;;;;;;12.80;3.65;;;;;;;;;;4900571;29;20085;-67
2023/10/19 21:42:57;;;;;;;13.27;3.67;;;;;;;;;;4900255;29;20504;-66
2023/10/19 21:45:23;;;;;;;11.18;3.67;;;;;;;;;;4900432;29;20041;-66
2023/10/19 21:47:48;;;;;;;10.60;3.78;;;;;;;;;;4900600;29;20207;-67
2023/10/19 21:50:14;;;;;;;8.18;3.90;;;;;;;;;;4900338;29;20033;-67
2023/10/19 21:52:43;;;;;;;11.77;3.70;;;;;;;;;;4900328;29;20040;-68
2023/10/19 21:55:10;;;;;;;7.40;3.30;;;;;;;;;;4900105;29;20036;-67
2023/10/19 21:57:36;;;;;;;9.95;3.42;;;;;;;;;;4900393;29;20029;-68
2023/10/19 22:00:04;;;;;;;14.50;4.50;;;;;;;;;;4899987;29;20410;-66
2023/10/19 22:02:29;;;;;;;7.55;2.90;;;;;;;;;;4900111;29;20035;-67
2023/10/19 22:04:55;;;;;;;13.10;4.05;;;;;;;;;;4899928;29;20033;-67
2023/10/19 22:07:20;;;;;;;9.70;3.55;;;;;;;;;;4899526;29;20037;-66
2023/10/19 22:09:48;;;;;;;9.63;3.85;;;;;;;;;;4898444;29;20037;-66
2023/10/19 22:12:13;;;;;;;8.82;3.92;;;;;;;;;;4898430;29;20033;-66
2023/10/19 22:14:39;;;;;;;13.65;3.53;;;;;;;;;;4898254;29;20056;-67
2023/10/19 22:17:05;;;;;;;13.43;3.42;;;;;;;;;;4898437;29;20034;-70
2023/10/19 22:19:31;;;;;;;13.35;3.70;;;;;;;;;;4898231;29;20100;-70
2023/10/19 22:21:57;;;;;;;11.70;3.42;;;;;;;;;;4898342;29;20088;-71
2023/10/19 22:24:23;;;;;;;13.63;3.65;;;;;;;;;;4898216;29;20024;-71
2023/10/19 22:26:54;;;;;;;8.63;3.47;;;;;;;;;;4898227;29;20043;-71
2023/10/19 22:29:21;;;;;;;10.02;3.28;;;;;;;;;;4898174;29;20044;-71
2023/10/19 22:31:50;;;;;;;10.68;3.78;;;;;;;;;;4898076;29;20036;-71
2023/10/19 22:34:16;;;;;;;14.00;3.88;;;;;;;;;;4897966;29;20493;-71
2023/10/19 22:36:42;;;;;;;15.15;4.35;;;;;;;;;;4897878;29;20060;-70
2023/10/19 22:39:10;;;;;;;16.45;3.45;;;;;;;;;;4897461;29;20111;-70
2023/10/19 22:41:37;;;;;;;7.15;3.30;;;;;;;;;;4897763;29;20112;-70
2023/10/19 22:44:03;;;;;;;14.35;4.00;;;;;;;;;;4898110;29;20614;-70
2023/10/19 22:46:30;;;;;;;9.32;3.75;;;;;;;;;;4897749;29;20037;-70
2023/10/19 22:48:56;;;;;;;12.27;3.75;;;;;;;;;;4897660;29;20029;-70
2023/10/19 22:51:22;;;;;;;10.07;3.60;;;;;;;;;;4897794;29;20455;-71
2023/10/19 22:53:48;;;;;;;16.33;4.07;;;;;;;;;;4897597;29;20069;-69
2023/10/19 22:56:15;;;;;;;10.45;4.00;;;;;;;;;;4897712;29;20067;-70
2023/10/19 22:58:40;;;;;;;8.57;4.00;;;;;;;;;;4897331;29;20056;-70
2023/10/19 23:01:06;;;;;;;14.50;4.45;;;;;;;;;;4897529;29;20028;-70
2023/10/19 23:03:31;;;;;;;16.45;4.05;;;;;;;;;;4898247;29;20039;-70
2023/10/19 23:05:57;;;;;;;8.68;3.85;;;;;;;;;;4908019;29;20533;-68
2023/10/19 23:08:23;;;;;;;8.85;3.80;;;;;;;;;;4916254;29;20032;-69
2023/10/19 23:10:50;;;;;;;11.60;4.65;;;;;;;;;;4916226;29;20060;-73
2023/10/19 23:13:17;;;;;;;17.30;4.43;;;;;;;;;;4917630;29;20024;-69
2023/10/19 23:15:49;;;;;;;13.23;4.43;;;;;;;;;;4916468;29;20123;-68
2023/10/19 23:18:18;;;;;;;7.63;3.53;;;;;;;;;;4884422;29;20039;-68
2023/10/19 23:20:55;;;;;;;8.38;3.60;;;;;;;;;;4916013;29;20032;-66
2023/10/19 23:23:21;;;;;;;10.70;3.30;;;;;;;;;;4915853;29;20481;-70
2023/10/19 23:26:00;;;;;;;10.95;3.47;;;;;;;;;;4915870;29;20110;-66
2023/10/19 23:28:28;;;;;;;11.85;4.00;;;;;;;;;;4915918;29;20032;-67
2023/10/19 23:31:01;;;;;;;11.43;3.55;;;;;;;;;;4915620;29;20028;-68
2023/10/19 23:33:28;;;;;;;6.97;3.67;;;;;;;;;;4898585;29;20032;-66
2023/10/19 23:35:54;;;;;;;8.07;3.47;;;;;;;;;;4915607;29;20059;-66
2023/10/19 23:38:20;;;;;;;13.02;3.92;;;;;;;;;;4915531;29;20020;-67